Hlavní strana
METAR-TAF:

METAR-TAF

Letiště :

Rabat, Maroko

zeměpisná šířka: 34-03N, zeměpisná délka: 006-46W, výška: 84 m

Aktuální stav počasí

Zpráva byla vytvořena před 13 minutami, v 12:00 UTC
Západojihozápadní vítr 15 kt
Teplota 20°C
Vlhkost vzduchu 60%
Tlak 1008 hPa
Viditelnost: 6000 m
Polojasno ve výšce 2000 ft

METAR: GMME 221200Z 25015KT 6000 SCT020 20/12 Q1008 NOSIG

Čas: 13:13 (12:13 UTC)

Předpověď počasí

Zpráva byla vytvořena před 1 hodinou a 13 minutami, v 11:00 UTC
Předpověď platná od 22 v 12 UTC do 23 v 18 UTC
Západní vítr 16 kt
Viditelnost: 6000 m
Polojasno ve výšce 2000 ft
Dočasný
od 23 v 04 UTC do 23 v 12 UTC
Viditelnost: 3000 m
Oblačno až skoro zataženo ve výšce 1300 ft
Oblačno až skoro zataženo ve výšce 9000 ft
déšť

TAF: GMME 221100Z 2212/2318 28016KT 6000 SCT020 TEMPO 2304/2312 3000 RA BKN013 BKN090

Stav a předpovědi počasí z více než 4 000 letišť (zprávy METAR a TAF).

Červené a žluté tečky na mapě představují dostupné meteorologické stanice.

Když kurzor umístíte na tečku, zobrazí se název stanice.

Pak kliknutím zobrazíte stav a předpověď počasí.

Chcete-li změnit mapu, kliknutím na zelené tlačítko se znaménkem +mapu přiblížíte, kliknutím na zelené tlačítko se znaménkem – mapu oddálíte a kliknutím na zelené šipky přejdete na sousední mapy.


METAR-TAF: